Terminal Aerodrome Forecast
Issued by NWS

Home | Current Version | Previous Version | Text Only | Print | Product List | Glossary On
Versions: 1 2 3 4 5 6 7 8 9 10 11 12 13 14 15 16 17 18 19 20 21 22 23 24 25 26 27
000
FTUS44 KOUN 281120
TAFHBR
TAF
KHBR 281120Z 2812/2912 07011G20KT P6SM VCTS BKN050CB
      TEMPO 2812/2813 3SM TSRA OVC040CB
     FM281700 09010KT P6SM SCT050 BKN120
     FM290600 12010KT P6SM BKN050 BKN120 PROB30 2907/2911 4SM TSRA
      OVC040CB=

USA.gov is the U.S. government's official web portal to all federal, state and local government web resources and services.